sensor_id;sensor_type;location;lat;lon;timestamp;P1;durP1;ratioP1;P2;durP2;ratioP2
78143;SDS011;67394;52.522;13.622;2023-05-01T00:01:11;9.23;;;5.60;;
78143;SDS011;67394;52.522;13.622;2023-05-01T00:03:38;7.28;;;4.93;;
78143;SDS011;67394;52.522;13.622;2023-05-01T00:06:06;8.88;;;5.25;;
78143;SDS011;67394;52.522;13.622;2023-05-01T00:08:33;11.65;;;4.90;;
78143;SDS011;67394;52.522;13.622;2023-05-01T00:11:03;8.20;;;4.90;;
78143;SDS011;67394;52.522;13.622;2023-05-01T00:13:30;8.40;;;4.85;;
78143;SDS011;67394;52.522;13.622;2023-05-01T00:15:57;9.80;;;5.18;;
78143;SDS011;67394;52.522;13.622;2023-05-01T00:18:24;8.68;;;4.82;;
78143;SDS011;67394;52.522;13.622;2023-05-01T00:20:51;9.63;;;4.63;;
78143;SDS011;67394;52.522;13.622;2023-05-01T00:23:18;7.60;;;4.57;;
78143;SDS011;67394;52.522;13.622;2023-05-01T00:25:44;9.43;;;4.90;;
78143;SDS011;67394;52.522;13.622;2023-05-01T00:28:11;7.53;;;4.63;;
78143;SDS011;67394;52.522;13.622;2023-05-01T00:30:38;8.18;;;4.80;;
78143;SDS011;67394;52.522;13.622;2023-05-01T00:33:04;8.60;;;4.72;;
78143;SDS011;67394;52.522;13.622;2023-05-01T00:35:31;8.02;;;4.90;;
78143;SDS011;67394;52.522;13.622;2023-05-01T00:37:57;6.82;;;4.22;;
78143;SDS011;67394;52.522;13.622;2023-05-01T00:40:24;6.82;;;4.72;;
78143;SDS011;67394;52.522;13.622;2023-05-01T00:42:51;7.88;;;4.80;;
78143;SDS011;67394;52.522;13.622;2023-05-01T00:45:17;10.63;;;4.60;;
78143;SDS011;67394;52.522;13.622;2023-05-01T00:47:44;9.07;;;5.30;;
78143;SDS011;67394;52.522;13.622;2023-05-01T00:50:11;9.00;;;5.07;;
78143;SDS011;67394;52.522;13.622;2023-05-01T00:52:39;8.75;;;4.90;;
78143;SDS011;67394;52.522;13.622;2023-05-01T00:55:06;7.90;;;4.72;;
78143;SDS011;67394;52.522;13.622;2023-05-01T00:57:33;8.35;;;4.43;;
78143;SDS011;67394;52.522;13.622;2023-05-01T01:00:00;9.00;;;5.00;;
78143;SDS011;67394;52.522;13.622;2023-05-01T01:02:27;8.23;;;4.90;;
78143;SDS011;67394;52.522;13.622;2023-05-01T01:04:57;8.80;;;4.80;;
78143;SDS011;67394;52.522;13.622;2023-05-01T01:10:28;8.70;;;5.05;;
78143;SDS011;67394;52.522;13.622;2023-05-01T01:21:45;9.43;;;5.32;;
78143;SDS011;67394;52.522;13.622;2023-05-01T01:35:43;9.10;;;5.13;;
78143;SDS011;67394;52.522;13.622;2023-05-01T01:38:20;11.07;;;5.53;;
78143;SDS011;67394;52.522;13.622;2023-05-01T01:41:18;8.52;;;5.30;;
78143;SDS011;67394;52.522;13.622;2023-05-01T01:43:52;8.23;;;5.25;;
78143;SDS011;67394;52.522;13.622;2023-05-01T01:46:27;7.75;;;5.15;;
78143;SDS011;67394;52.522;13.622;2023-05-01T01:48:55;12.40;;;5.65;;
78143;SDS011;67394;52.522;13.622;2023-05-01T01:51:24;11.23;;;6.13;;
78143;SDS011;67394;52.522;13.622;2023-05-01T01:53:54;11.55;;;5.95;;
78143;SDS011;67394;52.522;13.622;2023-05-01T01:56:28;8.55;;;5.50;;
78143;SDS011;67394;52.522;13.622;2023-05-01T01:58:56;7.95;;;5.00;;
78143;SDS011;67394;52.522;13.622;2023-05-01T02:01:26;7.43;;;4.95;;
78143;SDS011;67394;52.522;13.622;2023-05-01T02:03:54;7.47;;;5.63;;
78143;SDS011;67394;52.522;13.622;2023-05-01T02:06:25;11.15;;;5.57;;
78143;SDS011;67394;52.522;13.622;2023-05-01T02:08:54;10.38;;;5.43;;
78143;SDS011;67394;52.522;13.622;2023-05-01T02:11:23;10.35;;;5.55;;
78143;SDS011;67394;52.522;13.622;2023-05-01T02:13:51;12.00;;;5.72;;
78143;SDS011;67394;52.522;13.622;2023-05-01T02:16:20;9.60;;;5.18;;
78143;SDS011;67394;52.522;13.622;2023-05-01T02:18:48;11.30;;;5.70;;
78143;SDS011;67394;52.522;13.622;2023-05-01T02:21:16;14.80;;;5.80;;
78143;SDS011;67394;52.522;13.622;2023-05-01T02:23:44;10.20;;;6.30;;
78143;SDS011;67394;52.522;13.622;2023-05-01T02:26:12;9.43;;;5.63;;
78143;SDS011;67394;52.522;13.622;2023-05-01T02:28:41;11.50;;;6.05;;
78143;SDS011;67394;52.522;13.622;2023-05-01T02:31:08;11.70;;;5.85;;
78143;SDS011;67394;52.522;13.622;2023-05-01T02:33:35;11.13;;;5.97;;
78143;SDS011;67394;52.522;13.622;2023-05-01T02:36:02;8.85;;;5.55;;
78143;SDS011;67394;52.522;13.622;2023-05-01T02:38:28;10.82;;;5.43;;
78143;SDS011;67394;52.522;13.622;2023-05-01T02:40:56;8.27;;;5.40;;
78143;SDS011;67394;52.522;13.622;2023-05-01T02:43:24;10.63;;;6.22;;
78143;SDS011;67394;52.522;13.622;2023-05-01T02:45:53;11.77;;;6.18;;
78143;SDS011;67394;52.522;13.622;2023-05-01T02:50:49;9.98;;;5.50;;
78143;SDS011;67394;52.522;13.622;2023-05-01T02:53:17;8.10;;;5.25;;
78143;SDS011;67394;52.522;13.622;2023-05-01T02:55:45;7.88;;;5.18;;
78143;SDS011;67394;52.522;13.622;2023-05-01T03:00:44;10.43;;;5.32;;
78143;SDS011;67394;52.522;13.622;2023-05-01T03:03:12;8.85;;;5.60;;
78143;SDS011;67394;52.522;13.622;2023-05-01T03:05:38;11.40;;;6.00;;
78143;SDS011;67394;52.522;13.622;2023-05-01T03:08:05;8.30;;;5.60;;
78143;SDS011;67394;52.522;13.622;2023-05-01T03:10:33;10.90;;;5.95;;
78143;SDS011;67394;52.522;13.622;2023-05-01T03:13:00;9.18;;;5.75;;
78143;SDS011;67394;52.522;13.622;2023-05-01T03:15:26;10.60;;;5.93;;
78143;SDS011;67394;52.522;13.622;2023-05-01T03:17:53;11.75;;;6.15;;
78143;SDS011;67394;52.522;13.622;2023-05-01T03:20:19;10.18;;;5.20;;
78143;SDS011;67394;52.522;13.622;2023-05-01T03:22:45;8.77;;;5.80;;
78143;SDS011;67394;52.522;13.622;2023-05-01T03:25:12;10.50;;;5.82;;
78143;SDS011;67394;52.522;13.622;2023-05-01T03:27:38;11.43;;;5.82;;
78143;SDS011;67394;52.522;13.622;2023-05-01T03:30:05;12.73;;;6.07;;
78143;SDS011;67394;52.522;13.622;2023-05-01T03:32:32;11.63;;;6.18;;
78143;SDS011;67394;52.522;13.622;2023-05-01T03:34:58;9.27;;;5.53;;
78143;SDS011;67394;52.522;13.622;2023-05-01T03:37:25;9.70;;;5.53;;
78143;SDS011;67394;52.522;13.622;2023-05-01T03:39:51;11.13;;;5.78;;
78143;SDS011;67394;52.522;13.622;2023-05-01T03:42:17;10.57;;;5.88;;
78143;SDS011;67394;52.522;13.622;2023-05-01T03:44:44;11.10;;;5.90;;
78143;SDS011;67394;52.522;13.622;2023-05-01T03:47:10;9.77;;;5.72;;
78143;SDS011;67394;52.522;13.622;2023-05-01T03:49:37;10.23;;;5.80;;
78143;SDS011;67394;52.522;13.622;2023-05-01T03:52:03;9.30;;;5.72;;
78143;SDS011;67394;52.522;13.622;2023-05-01T03:54:29;13.25;;;6.07;;
78143;SDS011;67394;52.522;13.622;2023-05-01T03:56:56;10.13;;;5.82;;
78143;SDS011;67394;52.522;13.622;2023-05-01T03:59:22;10.23;;;6.20;;
78143;SDS011;67394;52.522;13.622;2023-05-01T04:01:48;11.23;;;5.68;;
78143;SDS011;67394;52.522;13.622;2023-05-01T04:04:15;11.40;;;6.47;;
78143;SDS011;67394;52.522;13.622;2023-05-01T04:06:41;9.82;;;5.63;;
78143;SDS011;67394;52.522;13.622;2023-05-01T04:09:07;9.82;;;5.75;;
78143;SDS011;67394;52.522;13.622;2023-05-01T04:11:34;8.82;;;4.82;;
78143;SDS011;67394;52.522;13.622;2023-05-01T04:14:00;9.90;;;5.20;;
78143;SDS011;67394;52.522;13.622;2023-05-01T04:16:27;8.73;;;5.07;;
78143;SDS011;67394;52.522;13.622;2023-05-01T04:18:53;9.52;;;5.35;;
78143;SDS011;67394;52.522;13.622;2023-05-01T04:21:19;9.05;;;5.53;;
78143;SDS011;67394;52.522;13.622;2023-05-01T04:23:46;11.45;;;6.30;;
78143;SDS011;67394;52.522;13.622;2023-05-01T04:26:12;10.15;;;5.93;;
78143;SDS011;67394;52.522;13.622;2023-05-01T04:28:39;9.43;;;4.93;;
78143;SDS011;67394;52.522;13.622;2023-05-01T04:31:05;9.05;;;5.32;;
78143;SDS011;67394;52.522;13.622;2023-05-01T04:33:31;8.20;;;5.20;;
78143;SDS011;67394;52.522;13.622;2023-05-01T04:35:58;10.13;;;5.32;;
78143;SDS011;67394;52.522;13.622;2023-05-01T04:38:24;9.27;;;5.25;;
78143;SDS011;67394;52.522;13.622;2023-05-01T04:40:50;11.60;;;6.25;;
78143;SDS011;67394;52.522;13.622;2023-05-01T04:43:17;13.10;;;5.57;;
78143;SDS011;67394;52.522;13.622;2023-05-01T04:45:43;9.82;;;4.75;;
78143;SDS011;67394;52.522;13.622;2023-05-01T04:48:09;8.57;;;5.07;;
78143;SDS011;67394;52.522;13.622;2023-05-01T04:50:36;9.27;;;5.50;;
78143;SDS011;67394;52.522;13.622;2023-05-01T04:53:02;10.35;;;5.47;;
78143;SDS011;67394;52.522;13.622;2023-05-01T04:55:29;11.55;;;5.10;;
78143;SDS011;67394;52.522;13.622;2023-05-01T04:57:56;9.50;;;4.82;;
78143;SDS011;67394;52.522;13.622;2023-05-01T05:00:22;9.80;;;4.80;;
78143;SDS011;67394;52.522;13.622;2023-05-01T05:02:49;8.95;;;5.15;;
78143;SDS011;67394;52.522;13.622;2023-05-01T05:05:15;10.20;;;4.75;;
78143;SDS011;67394;52.522;13.622;2023-05-01T05:07:42;7.80;;;4.45;;
78143;SDS011;67394;52.522;13.622;2023-05-01T05:10:08;9.05;;;4.70;;
78143;SDS011;67394;52.522;13.622;2023-05-01T05:12:35;9.43;;;5.07;;
78143;SDS011;67394;52.522;13.622;2023-05-01T05:15:01;8.30;;;4.70;;
78143;SDS011;67394;52.522;13.622;2023-05-01T05:17:27;9.45;;;4.65;;
78143;SDS011;67394;52.522;13.622;2023-05-01T05:19:54;7.97;;;4.38;;
78143;SDS011;67394;52.522;13.622;2023-05-01T05:22:21;11.73;;;4.88;;
78143;SDS011;67394;52.522;13.622;2023-05-01T05:24:51;10.90;;;5.30;;
78143;SDS011;67394;52.522;13.622;2023-05-01T05:27:18;9.43;;;4.40;;
78143;SDS011;67394;52.522;13.622;2023-05-01T05:29:44;7.00;;;3.92;;
78143;SDS011;67394;52.522;13.622;2023-05-01T05:32:11;11.07;;;4.47;;
78143;SDS011;67394;52.522;13.622;2023-05-01T05:34:37;6.75;;;4.35;;
78143;SDS011;67394;52.522;13.622;2023-05-01T05:37:04;9.55;;;4.45;;
78143;SDS011;67394;52.522;13.622;2023-05-01T05:39:30;8.23;;;4.43;;
78143;SDS011;67394;52.522;13.622;2023-05-01T05:41:56;6.72;;;4.07;;
78143;SDS011;67394;52.522;13.622;2023-05-01T05:44:23;8.00;;;4.50;;
78143;SDS011;67394;52.522;13.622;2023-05-01T05:46:49;8.77;;;4.78;;
78143;SDS011;67394;52.522;13.622;2023-05-01T05:49:15;17.20;;;9.45;;
78143;SDS011;67394;52.522;13.622;2023-05-01T05:51:42;9.13;;;4.40;;
78143;SDS011;67394;52.522;13.622;2023-05-01T05:54:08;8.90;;;3.83;;
78143;SDS011;67394;52.522;13.622;2023-05-01T05:56:34;9.25;;;4.35;;
78143;SDS011;67394;52.522;13.622;2023-05-01T05:59:01;6.43;;;4.22;;
78143;SDS011;67394;52.522;13.622;2023-05-01T06:01:27;8.38;;;4.13;;
78143;SDS011;67394;52.522;13.622;2023-05-01T06:03:54;8.98;;;4.18;;
78143;SDS011;67394;52.522;13.622;2023-05-01T06:06:21;8.05;;;4.50;;
78143;SDS011;67394;52.522;13.622;2023-05-01T06:08:47;5.90;;;4.45;;
78143;SDS011;67394;52.522;13.622;2023-05-01T06:11:14;8.65;;;4.68;;
78143;SDS011;67394;52.522;13.622;2023-05-01T06:13:40;9.32;;;3.40;;
78143;SDS011;67394;52.522;13.622;2023-05-01T06:16:06;9.05;;;4.63;;
78143;SDS011;67394;52.522;13.622;2023-05-01T06:18:33;7.35;;;3.92;;
78143;SDS011;67394;52.522;13.622;2023-05-01T06:20:59;8.45;;;4.13;;
78143;SDS011;67394;52.522;13.622;2023-05-01T06:23:26;7.70;;;3.88;;
78143;SDS011;67394;52.522;13.622;2023-05-01T06:25:53;6.25;;;3.88;;
78143;SDS011;67394;52.522;13.622;2023-05-01T06:28:19;10.38;;;5.15;;
78143;SDS011;67394;52.522;13.622;2023-05-01T06:30:45;6.88;;;3.92;;
78143;SDS011;67394;52.522;13.622;2023-05-01T06:33:12;7.68;;;4.30;;
78143;SDS011;67394;52.522;13.622;2023-05-01T06:35:39;6.47;;;4.13;;
78143;SDS011;67394;52.522;13.622;2023-05-01T06:38:05;8.52;;;4.18;;
78143;SDS011;67394;52.522;13.622;2023-05-01T06:40:31;6.57;;;3.95;;
78143;SDS011;67394;52.522;13.622;2023-05-01T06:42:58;7.50;;;3.95;;
78143;SDS011;67394;52.522;13.622;2023-05-01T06:45:24;6.03;;;3.30;;
78143;SDS011;67394;52.522;13.622;2023-05-01T06:47:50;5.38;;;3.25;;
78143;SDS011;67394;52.522;13.622;2023-05-01T06:50:17;7.97;;;3.80;;
78143;SDS011;67394;52.522;13.622;2023-05-01T06:52:43;7.10;;;3.60;;
78143;SDS011;67394;52.522;13.622;2023-05-01T06:55:10;6.97;;;3.63;;
78143;SDS011;67394;52.522;13.622;2023-05-01T06:57:36;6.75;;;3.40;;
78143;SDS011;67394;52.522;13.622;2023-05-01T07:00:02;7.72;;;3.50;;
78143;SDS011;67394;52.522;13.622;2023-05-01T07:02:29;7.80;;;4.05;;
78143;SDS011;67394;52.522;13.622;2023-05-01T07:04:56;6.90;;;3.60;;
78143;SDS011;67394;52.522;13.622;2023-05-01T07:07:22;8.02;;;3.30;;
78143;SDS011;67394;52.522;13.622;2023-05-01T07:09:49;7.60;;;2.97;;
78143;SDS011;67394;52.522;13.622;2023-05-01T07:12:15;5.85;;;3.53;;
78143;SDS011;67394;52.522;13.622;2023-05-01T07:14:41;5.28;;;3.40;;
78143;SDS011;67394;52.522;13.622;2023-05-01T07:17:08;7.15;;;3.45;;
78143;SDS011;67394;52.522;13.622;2023-05-01T07:19:34;8.90;;;3.55;;
78143;SDS011;67394;52.522;13.622;2023-05-01T07:22:00;5.32;;;3.20;;
78143;SDS011;67394;52.522;13.622;2023-05-01T07:24:27;5.28;;;3.38;;
78143;SDS011;67394;52.522;13.622;2023-05-01T07:26:53;4.95;;;3.20;;
78143;SDS011;67394;52.522;13.622;2023-05-01T07:29:20;8.70;;;3.42;;
78143;SDS011;67394;52.522;13.622;2023-05-01T07:31:46;9.45;;;3.70;;
78143;SDS011;67394;52.522;13.622;2023-05-01T07:34:12;7.00;;;3.25;;
78143;SDS011;67394;52.522;13.622;2023-05-01T07:36:39;5.07;;;3.30;;
78143;SDS011;67394;52.522;13.622;2023-05-01T07:39:05;7.30;;;3.08;;
78143;SDS011;67394;52.522;13.622;2023-05-01T07:41:31;5.18;;;3.33;;
78143;SDS011;67394;52.522;13.622;2023-05-01T07:43:58;6.50;;;3.70;;
78143;SDS011;67394;52.522;13.622;2023-05-01T07:46:24;6.03;;;3.00;;
78143;SDS011;67394;52.522;13.622;2023-05-01T07:48:51;6.57;;;3.25;;
78143;SDS011;67394;52.522;13.622;2023-05-01T07:51:17;8.45;;;3.33;;
78143;SDS011;67394;52.522;13.622;2023-05-01T07:53:44;5.43;;;2.97;;
78143;SDS011;67394;52.522;13.622;2023-05-01T07:56:10;7.03;;;3.35;;
78143;SDS011;67394;52.522;13.622;2023-05-01T07:58:37;9.07;;;4.05;;
78143;SDS011;67394;52.522;13.622;2023-05-01T08:01:04;6.47;;;3.22;;
78143;SDS011;67394;52.522;13.622;2023-05-01T08:03:31;8.20;;;3.00;;
78143;SDS011;67394;52.522;13.622;2023-05-01T08:05:57;5.03;;;2.88;;
78143;SDS011;67394;52.522;13.622;2023-05-01T08:08:24;5.55;;;3.38;;
78143;SDS011;67394;52.522;13.622;2023-05-01T08:10:50;6.13;;;3.00;;
78143;SDS011;67394;52.522;13.622;2023-05-01T08:13:17;6.88;;;3.40;;
78143;SDS011;67394;52.522;13.622;2023-05-01T08:15:47;5.90;;;3.20;;
78143;SDS011;67394;52.522;13.622;2023-05-01T08:18:14;5.57;;;3.05;;
78143;SDS011;67394;52.522;13.622;2023-05-01T08:20:40;4.00;;;2.70;;
78143;SDS011;67394;52.522;13.622;2023-05-01T08:23:06;5.93;;;3.13;;
78143;SDS011;67394;52.522;13.622;2023-05-01T08:25:33;6.53;;;3.53;;
78143;SDS011;67394;52.522;13.622;2023-05-01T08:27:59;6.20;;;3.03;;
78143;SDS011;67394;52.522;13.622;2023-05-01T08:30:25;3.92;;;2.60;;
78143;SDS011;67394;52.522;13.622;2023-05-01T08:32:52;4.72;;;2.42;;
78143;SDS011;67394;52.522;13.622;2023-05-01T08:35:18;5.57;;;2.90;;
78143;SDS011;67394;52.522;13.622;2023-05-01T08:37:44;5.18;;;2.90;;
78143;SDS011;67394;52.522;13.622;2023-05-01T08:40:11;5.47;;;2.83;;
78143;SDS011;67394;52.522;13.622;2023-05-01T08:42:37;7.85;;;2.97;;
78143;SDS011;67394;52.522;13.622;2023-05-01T08:45:07;7.75;;;3.25;;
78143;SDS011;67394;52.522;13.622;2023-05-01T08:47:38;8.43;;;3.03;;
78143;SDS011;67394;52.522;13.622;2023-05-01T08:50:09;3.67;;;2.83;;
78143;SDS011;67394;52.522;13.622;2023-05-01T08:52:36;5.30;;;2.80;;
78143;SDS011;67394;52.522;13.622;2023-05-01T08:55:06;6.50;;;3.00;;
78143;SDS011;67394;52.522;13.622;2023-05-01T08:57:36;6.75;;;2.85;;
78143;SDS011;67394;52.522;13.622;2023-05-01T09:00:04;5.80;;;3.13;;
78143;SDS011;67394;52.522;13.622;2023-05-01T09:02:33;6.95;;;2.83;;
78143;SDS011;67394;52.522;13.622;2023-05-01T09:05:00;4.18;;;2.50;;
78143;SDS011;67394;52.522;13.622;2023-05-01T09:07:28;4.88;;;2.55;;
78143;SDS011;67394;52.522;13.622;2023-05-01T09:09:55;6.25;;;2.85;;
78143;SDS011;67394;52.522;13.622;2023-05-01T09:12:23;4.65;;;3.03;;
78143;SDS011;67394;52.522;13.622;2023-05-01T09:14:51;6.07;;;3.20;;
78143;SDS011;67394;52.522;13.622;2023-05-01T09:17:19;3.85;;;2.45;;
78143;SDS011;67394;52.522;13.622;2023-05-01T09:19:47;5.38;;;2.80;;
78143;SDS011;67394;52.522;13.622;2023-05-01T09:22:15;5.07;;;2.60;;
78143;SDS011;67394;52.522;13.622;2023-05-01T09:24:44;5.10;;;2.42;;
78143;SDS011;67394;52.522;13.622;2023-05-01T09:27:11;6.22;;;2.90;;
78143;SDS011;67394;52.522;13.622;2023-05-01T09:29:42;5.63;;;2.92;;
78143;SDS011;67394;52.522;13.622;2023-05-01T09:32:19;5.30;;;2.60;;
78143;SDS011;67394;52.522;13.622;2023-05-01T09:34:51;5.10;;;2.80;;
78143;SDS011;67394;52.522;13.622;2023-05-01T09:37:25;4.15;;;2.70;;
78143;SDS011;67394;52.522;13.622;2023-05-01T09:40:09;4.53;;;2.63;;
78143;SDS011;67394;52.522;13.622;2023-05-01T09:42:50;3.92;;;2.85;;
78143;SDS011;67394;52.522;13.622;2023-05-01T09:45:18;4.43;;;2.90;;
78143;SDS011;67394;52.522;13.622;2023-05-01T09:47:45;5.38;;;2.85;;
78143;SDS011;67394;52.522;13.622;2023-05-01T09:50:33;4.82;;;3.10;;
78143;SDS011;67394;52.522;13.622;2023-05-01T09:53:00;4.93;;;3.17;;
78143;SDS011;67394;52.522;13.622;2023-05-01T09:55:27;7.70;;;3.40;;
78143;SDS011;67394;52.522;13.622;2023-05-01T09:57:54;7.47;;;4.05;;
78143;SDS011;67394;52.522;13.622;2023-05-01T10:00:20;7.07;;;3.50;;
78143;SDS011;67394;52.522;13.622;2023-05-01T10:02:47;4.65;;;2.85;;
78143;SDS011;67394;52.522;13.622;2023-05-01T10:05:15;6.97;;;3.53;;
78143;SDS011;67394;52.522;13.622;2023-05-01T10:10:21;6.60;;;3.50;;
78143;SDS011;67394;52.522;13.622;2023-05-01T10:15:15;6.88;;;3.38;;
78143;SDS011;67394;52.522;13.622;2023-05-01T10:17:51;7.93;;;3.92;;
78143;SDS011;67394;52.522;13.622;2023-05-01T10:20:20;5.85;;;3.50;;
78143;SDS011;67394;52.522;13.622;2023-05-01T10:22:46;6.35;;;3.00;;
78143;SDS011;67394;52.522;13.622;2023-05-01T10:27:41;6.35;;;3.30;;
78143;SDS011;67394;52.522;13.622;2023-05-01T10:30:08;7.88;;;3.53;;
78143;SDS011;67394;52.522;13.622;2023-05-01T10:32:35;9.90;;;4.25;;
78143;SDS011;67394;52.522;13.622;2023-05-01T10:35:13;8.52;;;3.75;;
78143;SDS011;67394;52.522;13.622;2023-05-01T10:43:16;6.03;;;3.30;;
78143;SDS011;67394;52.522;13.622;2023-05-01T10:51:14;5.40;;;3.55;;
78143;SDS011;67394;52.522;13.622;2023-05-01T10:53:45;5.15;;;3.42;;
78143;SDS011;67394;52.522;13.622;2023-05-01T10:59:24;4.57;;;3.35;;
78143;SDS011;67394;52.522;13.622;2023-05-01T11:01:51;8.10;;;3.70;;
78143;SDS011;67394;52.522;13.622;2023-05-01T11:09:36;6.55;;;3.80;;
78143;SDS011;67394;52.522;13.622;2023-05-01T11:12:07;5.93;;;3.72;;
78143;SDS011;67394;52.522;13.622;2023-05-01T11:22:53;4.78;;;3.63;;
78143;SDS011;67394;52.522;13.622;2023-05-01T11:25:21;8.30;;;3.70;;
78143;SDS011;67394;52.522;13.622;2023-05-01T11:28:09;5.03;;;3.78;;
78143;SDS011;67394;52.522;13.622;2023-05-01T11:30:36;6.85;;;4.68;;
78143;SDS011;67394;52.522;13.622;2023-05-01T11:33:03;10.20;;;4.40;;
78143;SDS011;67394;52.522;13.622;2023-05-01T11:35:34;9.13;;;4.35;;
78143;SDS011;67394;52.522;13.622;2023-05-01T11:38:01;6.38;;;3.55;;
78143;SDS011;67394;52.522;13.622;2023-05-01T11:43:04;6.65;;;4.03;;
78143;SDS011;67394;52.522;13.622;2023-05-01T11:45:33;6.07;;;3.90;;
78143;SDS011;67394;52.522;13.622;2023-05-01T11:48:03;5.18;;;3.78;;
78143;SDS011;67394;52.522;13.622;2023-05-01T11:50:31;6.53;;;3.95;;
78143;SDS011;67394;52.522;13.622;2023-05-01T11:52:59;6.47;;;4.00;;
78143;SDS011;67394;52.522;13.622;2023-05-01T11:55:32;6.30;;;4.15;;
78143;SDS011;67394;52.522;13.622;2023-05-01T11:58:00;7.10;;;4.00;;
78143;SDS011;67394;52.522;13.622;2023-05-01T12:00:28;5.53;;;4.20;;
78143;SDS011;67394;52.522;13.622;2023-05-01T12:03:06;6.88;;;3.78;;
78143;SDS011;67394;52.522;13.622;2023-05-01T12:05:33;9.13;;;5.15;;
78143;SDS011;67394;52.522;13.622;2023-05-01T12:08:05;6.43;;;3.78;;
78143;SDS011;67394;52.522;13.622;2023-05-01T12:10:41;6.80;;;4.60;;
78143;SDS011;67394;52.522;13.622;2023-05-01T12:13:09;6.90;;;4.10;;
78143;SDS011;67394;52.522;13.622;2023-05-01T12:15:38;6.55;;;3.90;;
78143;SDS011;67394;52.522;13.622;2023-05-01T12:18:11;5.63;;;3.83;;
78143;SDS011;67394;52.522;13.622;2023-05-01T12:20:46;6.38;;;3.72;;
78143;SDS011;67394;52.522;13.622;2023-05-01T12:23:14;5.90;;;3.78;;
78143;SDS011;67394;52.522;13.622;2023-05-01T12:25:42;6.65;;;4.18;;
78143;SDS011;67394;52.522;13.622;2023-05-01T12:30:41;7.07;;;3.92;;
78143;SDS011;67394;52.522;13.622;2023-05-01T12:33:13;7.45;;;6.32;;
78143;SDS011;67394;52.522;13.622;2023-05-01T12:35:40;5.20;;;4.40;;
78143;SDS011;67394;52.522;13.622;2023-05-01T12:40:48;6.10;;;4.55;;
78143;SDS011;67394;52.522;13.622;2023-05-01T12:43:32;6.95;;;4.72;;
78143;SDS011;67394;52.522;13.622;2023-05-01T12:46:03;6.43;;;4.10;;
78143;SDS011;67394;52.522;13.622;2023-05-01T12:48:31;6.20;;;3.65;;
78143;SDS011;67394;52.522;13.622;2023-05-01T12:50:59;5.28;;;4.22;;
78143;SDS011;67394;52.522;13.622;2023-05-01T12:53:26;7.03;;;4.90;;
78143;SDS011;67394;52.522;13.622;2023-05-01T12:55:54;7.47;;;4.07;;
78143;SDS011;67394;52.522;13.622;2023-05-01T12:58:33;4.68;;;3.63;;
78143;SDS011;67394;52.522;13.622;2023-05-01T13:01:03;7.80;;;4.43;;
78143;SDS011;67394;52.522;13.622;2023-05-01T13:03:32;5.80;;;3.95;;
78143;SDS011;67394;52.522;13.622;2023-05-01T13:06:01;9.23;;;3.95;;
78143;SDS011;67394;52.522;13.622;2023-05-01T13:08:29;4.82;;;3.70;;
78143;SDS011;67394;52.522;13.622;2023-05-01T13:11:09;5.38;;;3.40;;
78143;SDS011;67394;52.522;13.622;2023-05-01T13:13:37;6.15;;;3.65;;
78143;SDS011;67394;52.522;13.622;2023-05-01T13:16:05;6.65;;;3.67;;
78143;SDS011;67394;52.522;13.622;2023-05-01T13:18:47;5.03;;;3.55;;
78143;SDS011;67394;52.522;13.622;2023-05-01T13:21:17;5.22;;;3.80;;
78143;SDS011;67394;52.522;13.622;2023-05-01T13:23:56;7.78;;;4.07;;
78143;SDS011;67394;52.522;13.622;2023-05-01T13:26:31;7.00;;;4.60;;
78143;SDS011;67394;52.522;13.622;2023-05-01T13:29:02;6.35;;;3.75;;
78143;SDS011;67394;52.522;13.622;2023-05-01T13:31:29;5.60;;;3.55;;
78143;SDS011;67394;52.522;13.622;2023-05-01T13:33:57;6.38;;;3.67;;
78143;SDS011;67394;52.522;13.622;2023-05-01T13:36:24;5.93;;;4.00;;
78143;SDS011;67394;52.522;13.622;2023-05-01T13:38:56;5.00;;;3.60;;
78143;SDS011;67394;52.522;13.622;2023-05-01T13:41:24;8.15;;;4.78;;
78143;SDS011;67394;52.522;13.622;2023-05-01T13:43:52;6.65;;;3.95;;
78143;SDS011;67394;52.522;13.622;2023-05-01T13:46:20;5.75;;;3.47;;
78143;SDS011;67394;52.522;13.622;2023-05-01T13:48:49;7.72;;;3.92;;
78143;SDS011;67394;52.522;13.622;2023-05-01T13:51:23;6.10;;;3.97;;
78143;SDS011;67394;52.522;13.622;2023-05-01T13:53:52;5.55;;;3.95;;
78143;SDS011;67394;52.522;13.622;2023-05-01T13:56:22;8.80;;;3.80;;
78143;SDS011;67394;52.522;13.622;2023-05-01T13:58:49;5.25;;;3.65;;
78143;SDS011;67394;52.522;13.622;2023-05-01T14:01:19;6.07;;;3.63;;
78143;SDS011;67394;52.522;13.622;2023-05-01T14:03:48;5.30;;;3.47;;
78143;SDS011;67394;52.522;13.622;2023-05-01T14:06:16;7.18;;;4.00;;
78143;SDS011;67394;52.522;13.622;2023-05-01T14:08:44;9.05;;;3.92;;
78143;SDS011;67394;52.522;13.622;2023-05-01T14:11:13;5.80;;;3.60;;
78143;SDS011;67394;52.522;13.622;2023-05-01T14:13:41;5.43;;;3.88;;
78143;SDS011;67394;52.522;13.622;2023-05-01T14:16:10;5.25;;;3.67;;
78143;SDS011;67394;52.522;13.622;2023-05-01T14:18:47;5.25;;;3.63;;
78143;SDS011;67394;52.522;13.622;2023-05-01T14:21:14;7.82;;;4.13;;
78143;SDS011;67394;52.522;13.622;2023-05-01T14:23:42;4.68;;;3.28;;
78143;SDS011;67394;52.522;13.622;2023-05-01T14:26:09;5.25;;;3.60;;
78143;SDS011;67394;52.522;13.622;2023-05-01T14:28:40;4.78;;;3.53;;
78143;SDS011;67394;52.522;13.622;2023-05-01T14:31:07;5.15;;;3.53;;
78143;SDS011;67394;52.522;13.622;2023-05-01T14:33:38;7.78;;;3.72;;
78143;SDS011;67394;52.522;13.622;2023-05-01T14:36:07;6.68;;;3.45;;
78143;SDS011;67394;52.522;13.622;2023-05-01T14:38:34;7.03;;;3.90;;
78143;SDS011;67394;52.522;13.622;2023-05-01T14:43:29;5.85;;;4.07;;
78143;SDS011;67394;52.522;13.622;2023-05-01T14:45:56;6.03;;;4.05;;
78143;SDS011;67394;52.522;13.622;2023-05-01T14:48:27;6.47;;;4.20;;
78143;SDS011;67394;52.522;13.622;2023-05-01T14:51:00;5.22;;;3.67;;
78143;SDS011;67394;52.522;13.622;2023-05-01T14:53:30;4.90;;;4.05;;
78143;SDS011;67394;52.522;13.622;2023-05-01T14:55:57;7.32;;;4.18;;
78143;SDS011;67394;52.522;13.622;2023-05-01T14:58:24;6.55;;;4.25;;
78143;SDS011;67394;52.522;13.622;2023-05-01T15:03:17;7.53;;;4.07;;
78143;SDS011;67394;52.522;13.622;2023-05-01T15:05:44;4.93;;;3.85;;
78143;SDS011;67394;52.522;13.622;2023-05-01T15:08:11;6.50;;;4.30;;
78143;SDS011;67394;52.522;13.622;2023-05-01T15:10:38;5.43;;;4.30;;
78143;SDS011;67394;52.522;13.622;2023-05-01T15:13:05;6.82;;;4.70;;
78143;SDS011;67394;52.522;13.622;2023-05-01T15:15:32;6.28;;;4.53;;
78143;SDS011;67394;52.522;13.622;2023-05-01T15:18:00;7.50;;;4.28;;
78143;SDS011;67394;52.522;13.622;2023-05-01T15:20:26;5.78;;;4.07;;
78143;SDS011;67394;52.522;13.622;2023-05-01T15:22:54;5.68;;;3.92;;
78143;SDS011;67394;52.522;13.622;2023-05-01T15:25:22;6.68;;;4.22;;
78143;SDS011;67394;52.522;13.622;2023-05-01T15:30:15;7.35;;;4.50;;
78143;SDS011;67394;52.522;13.622;2023-05-01T15:32:41;5.60;;;3.65;;
78143;SDS011;67394;52.522;13.622;2023-05-01T15:35:09;9.90;;;4.20;;
78143;SDS011;67394;52.522;13.622;2023-05-01T15:37:35;4.53;;;3.33;;
78143;SDS011;67394;52.522;13.622;2023-05-01T15:40:02;6.30;;;3.92;;
78143;SDS011;67394;52.522;13.622;2023-05-01T15:42:30;6.97;;;3.58;;
78143;SDS011;67394;52.522;13.622;2023-05-01T15:44:58;5.10;;;3.65;;
78143;SDS011;67394;52.522;13.622;2023-05-01T15:47:25;5.43;;;3.72;;
78143;SDS011;67394;52.522;13.622;2023-05-01T15:49:52;5.38;;;3.90;;
78143;SDS011;67394;52.522;13.622;2023-05-01T15:52:19;5.03;;;3.97;;
78143;SDS011;67394;52.522;13.622;2023-05-01T15:54:45;5.53;;;3.63;;
78143;SDS011;67394;52.522;13.622;2023-05-01T15:59:39;6.13;;;3.67;;